Terminal Aerodrome Forecast
Issued by NWS

Home | Current Version | Previous Version | Text Only | Print | Product List | Glossary On
Versions: 1 2 3 4 5 6 7 8 9 10 11 12 13 14 15 16 17 18 19 20 21 22 23 24 25
000
FTUS43 KDVN 040908 AAA
TAFCID
TAF AMD
KCID 040908Z 0409/0506 VRB05KT P6SM -SHRA BKN060
     FM041200 02009KT P6SM SCT090
     FM042100 07010KT P6SM VCTS BKN050CB PROB30 0500/0506 2SM TSRA
      BKN024CB OVC040=

USA.gov is the U.S. government's official web portal to all federal, state and local government web resources and services.